Pawcatuck, CT (06379)

7:14 PM EDT on September 22, 2014 (GMT -0400)
APRSWXNET Westerly RI US | Change Station
CLOSE
Current Station
Personal Weather Station
Location: Pawcatuck, CT
Elevation: 209 ft
Nearby Weather Stations

Elev 209 ft 41.39 °N, 71.81 °W | Updated 50 minutes ago

Partly Cloudy
Partly Cloudy
65 °F
Feels Like 65 °F
N
0
Wind Variable Wind from ESE
Gusts 18.0 mph

Today
High -- | Low -- °F
--% Chance of Precip.
Yesterday
High -- | Low -- °F
Precip. -- in
6:34 AM 6:44 PM
Waning Crescent, 2% visible
Pressure 29.94 in
Visibility 10.0 miles
Clouds Few 5500 ft
Dew Point 45 °F
Humidity 48%
Rainfall 0.00 in
Snow Depth Not available.
UV 0 out of 12
Pollen 3.70 out of 12
Ozone Good
Flu Activity Not available.
METAR KWST 222253Z AUTO 30003KT 10SM FEW055 18/08 A2994 RMK AO2 SLP136 T01830083

More Conditions Fewer Conditions

Pressure 29.94 in
Visibility 10.0 miles
Clouds Few 5500 ft
Dew Point 45 °F
Humidity 48%
Rainfall 0.00 in
Snow Depth Not available.
UV 0 out of 12
Pollen 3.70 out of 12
Ozone Good
Flu Activity Not available.
METAR KWST 222253Z AUTO 30003KT 10SM FEW055 18/08 A2994 RMK AO2 SLP136 T01830083

More Conditions Fewer Conditions

10-Day Weather Forecast

Almanac

Astronomy

Sep. 22, 2014 Rise Set
Actual Time 6:34 AM EDT 6:44 PM EDT
Civil Twilight 6:07 AM EDT 7:12 PM EDT
Nautical Twilight 5:34 AM EDT 7:44 PM EDT
Astronomical Twilight 5:01 AM EDT 8:17 PM EDT
Moon 5:00 AM EDT 5:51 PM EDT
Length of Visible Light 13h 04m
Length of Day
12h 09m
Tomorrow will be 2m 44s shorter.
Waning Crescent, 2% of the Moon is Illuminated
Today
Waning Crescent
Sep 24
New
Oct 1
First Quarter
Oct 8
Full
Oct 15
Last Quarter

Today's Extremes

State Highs State Lows

Community

WunderPhotos

Upload Photos

1,755,548 photos uploaded!

Nearby

Air Quality

  Air Quality AQ Index Pollutant
Yesterday Good
OZONE
Yesterday Good
PM2.5
Current Good
OZONE
Monday Good
OZONE
Tuesday Good
OZONE
Tuesday Good
PM2.5

Snow Depth

Station Depth Elevation
No new snow has been reported.

Earthquake Activity

City Distance Mag. Time & Date
No recent earthquake activity has been reported nearby.
Minimum magnitude displayed is 2.5.

Coastal Water Temperatures

Place Temperature
New London, CT 68.0 °F
Newport, RI 66.9 °F
Quonset Point, RI 69.1 °F
Conimicut Light, RI 69.1 °F
Providence, RI 68.0 °F

Nearby Weather Stations